sensor_id;sensor_type;location;lat;lon;timestamp;P1;durP1;ratioP1;P2;durP2;ratioP2
8938;SDS011;4504;48.810;9.172;2023-12-07T00:01:06;119.78;;;5.60;;
8938;SDS011;4504;48.810;9.172;2023-12-07T00:03:33;117.85;;;5.15;;
8938;SDS011;4504;48.810;9.172;2023-12-07T00:06:00;117.97;;;5.20;;
8938;SDS011;4504;48.810;9.172;2023-12-07T00:08:27;118.30;;;5.43;;
8938;SDS011;4504;48.810;9.172;2023-12-07T00:10:56;118.05;;;5.55;;
8938;SDS011;4504;48.810;9.172;2023-12-07T00:13:23;118.47;;;5.25;;
8938;SDS011;4504;48.810;9.172;2023-12-07T00:15:50;121.55;;;5.28;;
8938;SDS011;4504;48.810;9.172;2023-12-07T00:18:17;118.57;;;5.20;;
8938;SDS011;4504;48.810;9.172;2023-12-07T00:20:45;118.47;;;5.43;;
8938;SDS011;4504;48.810;9.172;2023-12-07T00:23:12;120.70;;;6.70;;
8938;SDS011;4504;48.810;9.172;2023-12-07T00:25:39;117.93;;;5.00;;
8938;SDS011;4504;48.810;9.172;2023-12-07T00:28:07;118.25;;;4.90;;
8938;SDS011;4504;48.810;9.172;2023-12-07T00:30:34;120.68;;;5.80;;
8938;SDS011;4504;48.810;9.172;2023-12-07T00:33:01;118.40;;;5.22;;
8938;SDS011;4504;48.810;9.172;2023-12-07T00:35:28;120.03;;;5.40;;
8938;SDS011;4504;48.810;9.172;2023-12-07T00:37:55;116.68;;;5.15;;
8938;SDS011;4504;48.810;9.172;2023-12-07T00:40:22;118.25;;;5.10;;
8938;SDS011;4504;48.810;9.172;2023-12-07T00:42:50;118.15;;;5.22;;
8938;SDS011;4504;48.810;9.172;2023-12-07T00:45:19;118.57;;;5.05;;
8938;SDS011;4504;48.810;9.172;2023-12-07T00:47:46;119.22;;;5.50;;
8938;SDS011;4504;48.810;9.172;2023-12-07T00:50:13;117.68;;;5.07;;
8938;SDS011;4504;48.810;9.172;2023-12-07T00:52:40;118.75;;;5.35;;
8938;SDS011;4504;48.810;9.172;2023-12-07T00:55:08;118.68;;;5.38;;
8938;SDS011;4504;48.810;9.172;2023-12-07T00:57:35;118.13;;;5.40;;
8938;SDS011;4504;48.810;9.172;2023-12-07T01:00:02;118.63;;;5.43;;
8938;SDS011;4504;48.810;9.172;2023-12-07T01:02:31;117.95;;;5.03;;
8938;SDS011;4504;48.810;9.172;2023-12-07T01:04:58;117.80;;;5.25;;
8938;SDS011;4504;48.810;9.172;2023-12-07T01:07:25;119.38;;;5.55;;
8938;SDS011;4504;48.810;9.172;2023-12-07T01:09:53;120.22;;;5.40;;
8938;SDS011;4504;48.810;9.172;2023-12-07T01:12:20;117.30;;;5.15;;
8938;SDS011;4504;48.810;9.172;2023-12-07T01:14:47;116.63;;;4.90;;
8938;SDS011;4504;48.810;9.172;2023-12-07T01:17:14;118.65;;;5.10;;
8938;SDS011;4504;48.810;9.172;2023-12-07T01:19:42;117.82;;;5.20;;
8938;SDS011;4504;48.810;9.172;2023-12-07T01:22:09;120.22;;;5.35;;
8938;SDS011;4504;48.810;9.172;2023-12-07T01:24:36;117.97;;;5.43;;
8938;SDS011;4504;48.810;9.172;2023-12-07T01:27:03;118.63;;;5.05;;
8938;SDS011;4504;48.810;9.172;2023-12-07T01:29:30;118.63;;;5.45;;
8938;SDS011;4504;48.810;9.172;2023-12-07T01:31:57;120.43;;;5.30;;
8938;SDS011;4504;48.810;9.172;2023-12-07T01:34:24;116.80;;;5.88;;
8938;SDS011;4504;48.810;9.172;2023-12-07T01:36:53;119.18;;;5.50;;
8938;SDS011;4504;48.810;9.172;2023-12-07T01:39:20;117.45;;;5.55;;
8938;SDS011;4504;48.810;9.172;2023-12-07T01:41:47;116.82;;;5.60;;
8938;SDS011;4504;48.810;9.172;2023-12-07T01:44:14;118.88;;;6.00;;
8938;SDS011;4504;48.810;9.172;2023-12-07T01:46:41;119.43;;;5.60;;
8938;SDS011;4504;48.810;9.172;2023-12-07T01:49:09;120.22;;;5.40;;
8938;SDS011;4504;48.810;9.172;2023-12-07T01:51:36;117.47;;;5.10;;
8938;SDS011;4504;48.810;9.172;2023-12-07T01:54:05;117.97;;;4.80;;
8938;SDS011;4504;48.810;9.172;2023-12-07T01:56:32;119.13;;;5.35;;
8938;SDS011;4504;48.810;9.172;2023-12-07T01:58:59;117.57;;;4.80;;
8938;SDS011;4504;48.810;9.172;2023-12-07T02:01:26;119.15;;;5.65;;
8938;SDS011;4504;48.810;9.172;2023-12-07T02:03:54;117.15;;;5.13;;
8938;SDS011;4504;48.810;9.172;2023-12-07T02:06:21;117.68;;;5.03;;
8938;SDS011;4504;48.810;9.172;2023-12-07T02:08:48;118.25;;;5.18;;
8938;SDS011;4504;48.810;9.172;2023-12-07T02:11:17;118.47;;;5.05;;
8938;SDS011;4504;48.810;9.172;2023-12-07T02:13:44;117.60;;;5.13;;
8938;SDS011;4504;48.810;9.172;2023-12-07T02:16:14;117.60;;;5.00;;
8938;SDS011;4504;48.810;9.172;2023-12-07T02:18:46;118.10;;;5.10;;
8938;SDS011;4504;48.810;9.172;2023-12-07T02:21:21;117.95;;;5.05;;
8938;SDS011;4504;48.810;9.172;2023-12-07T02:23:51;117.13;;;5.22;;
8938;SDS011;4504;48.810;9.172;2023-12-07T02:26:22;118.82;;;5.50;;
8938;SDS011;4504;48.810;9.172;2023-12-07T02:28:52;117.93;;;5.60;;
8938;SDS011;4504;48.810;9.172;2023-12-07T02:31:19;120.25;;;6.97;;
8938;SDS011;4504;48.810;9.172;2023-12-07T02:33:46;120.53;;;6.30;;
8938;SDS011;4504;48.810;9.172;2023-12-07T02:36:13;118.72;;;5.57;;
8938;SDS011;4504;48.810;9.172;2023-12-07T02:38:43;117.93;;;5.15;;
8938;SDS011;4504;48.810;9.172;2023-12-07T02:41:12;118.18;;;5.95;;
8938;SDS011;4504;48.810;9.172;2023-12-07T02:43:41;118.13;;;5.22;;
8938;SDS011;4504;48.810;9.172;2023-12-07T02:46:10;118.28;;;5.38;;
8938;SDS011;4504;48.810;9.172;2023-12-07T02:48:37;117.80;;;5.35;;
8938;SDS011;4504;48.810;9.172;2023-12-07T02:51:05;117.68;;;5.30;;
8938;SDS011;4504;48.810;9.172;2023-12-07T02:53:32;117.28;;;5.38;;
8938;SDS011;4504;48.810;9.172;2023-12-07T02:55:59;119.40;;;6.40;;
8938;SDS011;4504;48.810;9.172;2023-12-07T02:58:26;118.25;;;5.20;;
8938;SDS011;4504;48.810;9.172;2023-12-07T03:00:53;117.43;;;5.00;;
8938;SDS011;4504;48.810;9.172;2023-12-07T03:03:21;118.72;;;5.95;;
8938;SDS011;4504;48.810;9.172;2023-12-07T03:05:48;119.40;;;5.75;;
8938;SDS011;4504;48.810;9.172;2023-12-07T03:08:15;122.45;;;6.28;;
8938;SDS011;4504;48.810;9.172;2023-12-07T03:10:43;118.68;;;5.40;;
8938;SDS011;4504;48.810;9.172;2023-12-07T03:13:10;118.10;;;5.03;;
8938;SDS011;4504;48.810;9.172;2023-12-07T03:15:37;118.28;;;5.30;;
8938;SDS011;4504;48.810;9.172;2023-12-07T03:18:04;116.85;;;4.80;;
8938;SDS011;4504;48.810;9.172;2023-12-07T03:20:33;117.78;;;5.00;;
8938;SDS011;4504;48.810;9.172;2023-12-07T03:23:01;120.03;;;6.25;;
8938;SDS011;4504;48.810;9.172;2023-12-07T03:25:29;118.50;;;5.32;;
8938;SDS011;4504;48.810;9.172;2023-12-07T03:27:56;118.53;;;5.88;;
8938;SDS011;4504;48.810;9.172;2023-12-07T03:30:23;119.38;;;6.65;;
8938;SDS011;4504;48.810;9.172;2023-12-07T03:32:50;119.43;;;6.45;;
8938;SDS011;4504;48.810;9.172;2023-12-07T03:35:17;118.57;;;6.15;;
8938;SDS011;4504;48.810;9.172;2023-12-07T03:37:46;117.68;;;5.30;;
8938;SDS011;4504;48.810;9.172;2023-12-07T03:40:13;133.38;;;6.50;;
8938;SDS011;4504;48.810;9.172;2023-12-07T03:42:39;118.78;;;6.57;;
8938;SDS011;4504;48.810;9.172;2023-12-07T03:45:07;117.72;;;6.38;;
8938;SDS011;4504;48.810;9.172;2023-12-07T03:47:34;119.68;;;6.03;;
8938;SDS011;4504;48.810;9.172;2023-12-07T03:50:02;118.40;;;5.78;;
8938;SDS011;4504;48.810;9.172;2023-12-07T03:52:29;119.38;;;5.75;;
8938;SDS011;4504;48.810;9.172;2023-12-07T03:54:57;118.65;;;5.95;;
8938;SDS011;4504;48.810;9.172;2023-12-07T03:57:24;118.80;;;5.53;;
8938;SDS011;4504;48.810;9.172;2023-12-07T03:59:51;119.53;;;5.82;;
8938;SDS011;4504;48.810;9.172;2023-12-07T04:02:19;117.72;;;5.50;;
8938;SDS011;4504;48.810;9.172;2023-12-07T04:04:46;123.53;;;6.50;;
8938;SDS011;4504;48.810;9.172;2023-12-07T04:07:13;117.50;;;5.63;;
8938;SDS011;4504;48.810;9.172;2023-12-07T04:09:40;118.68;;;5.70;;
8938;SDS011;4504;48.810;9.172;2023-12-07T04:12:08;119.97;;;6.38;;
8938;SDS011;4504;48.810;9.172;2023-12-07T04:14:35;120.28;;;6.75;;
8938;SDS011;4504;48.810;9.172;2023-12-07T04:17:02;118.78;;;5.70;;
8938;SDS011;4504;48.810;9.172;2023-12-07T04:19:30;117.85;;;5.47;;
8938;SDS011;4504;48.810;9.172;2023-12-07T04:21:57;117.22;;;5.85;;
8938;SDS011;4504;48.810;9.172;2023-12-07T04:24:24;121.75;;;5.65;;
8938;SDS011;4504;48.810;9.172;2023-12-07T04:26:51;118.43;;;6.00;;
8938;SDS011;4504;48.810;9.172;2023-12-07T04:29:19;118.38;;;5.30;;
8938;SDS011;4504;48.810;9.172;2023-12-07T04:31:46;119.30;;;6.25;;
8938;SDS011;4504;48.810;9.172;2023-12-07T04:34:13;119.57;;;6.47;;
8938;SDS011;4504;48.810;9.172;2023-12-07T04:36:40;121.13;;;6.30;;
8938;SDS011;4504;48.810;9.172;2023-12-07T04:39:07;120.07;;;5.70;;
8938;SDS011;4504;48.810;9.172;2023-12-07T04:41:35;118.18;;;5.30;;
8938;SDS011;4504;48.810;9.172;2023-12-07T04:44:02;118.88;;;6.05;;
8938;SDS011;4504;48.810;9.172;2023-12-07T04:46:31;119.00;;;5.70;;
8938;SDS011;4504;48.810;9.172;2023-12-07T04:48:58;117.22;;;5.22;;
8938;SDS011;4504;48.810;9.172;2023-12-07T04:51:25;122.78;;;6.60;;
8938;SDS011;4504;48.810;9.172;2023-12-07T04:53:52;118.55;;;6.00;;
8938;SDS011;4504;48.810;9.172;2023-12-07T04:56:19;118.15;;;5.50;;
8938;SDS011;4504;48.810;9.172;2023-12-07T04:58:46;120.47;;;6.30;;
8938;SDS011;4504;48.810;9.172;2023-12-07T05:01:15;120.55;;;5.85;;
8938;SDS011;4504;48.810;9.172;2023-12-07T05:03:45;117.28;;;5.53;;
8938;SDS011;4504;48.810;9.172;2023-12-07T05:06:12;117.85;;;5.43;;
8938;SDS011;4504;48.810;9.172;2023-12-07T05:08:39;119.47;;;5.70;;
8938;SDS011;4504;48.810;9.172;2023-12-07T05:11:08;118.38;;;5.30;;
8938;SDS011;4504;48.810;9.172;2023-12-07T05:13:35;118.13;;;5.60;;
8938;SDS011;4504;48.810;9.172;2023-12-07T05:16:02;119.18;;;5.38;;
8938;SDS011;4504;48.810;9.172;2023-12-07T05:18:30;118.38;;;5.60;;
8938;SDS011;4504;48.810;9.172;2023-12-07T05:20:58;118.30;;;5.20;;
8938;SDS011;4504;48.810;9.172;2023-12-07T05:23:25;121.43;;;6.07;;
8938;SDS011;4504;48.810;9.172;2023-12-07T05:25:52;119.40;;;6.25;;
8938;SDS011;4504;48.810;9.172;2023-12-07T05:28:21;119.28;;;5.65;;
8938;SDS011;4504;48.810;9.172;2023-12-07T05:30:48;120.43;;;6.13;;
8938;SDS011;4504;48.810;9.172;2023-12-07T05:33:15;122.00;;;6.07;;
8938;SDS011;4504;48.810;9.172;2023-12-07T05:35:42;120.32;;;6.35;;
8938;SDS011;4504;48.810;9.172;2023-12-07T05:38:10;118.05;;;5.25;;
8938;SDS011;4504;48.810;9.172;2023-12-07T05:40:37;118.18;;;5.40;;
8938;SDS011;4504;48.810;9.172;2023-12-07T05:43:04;118.97;;;6.05;;
8938;SDS011;4504;48.810;9.172;2023-12-07T05:45:33;118.57;;;5.50;;
8938;SDS011;4504;48.810;9.172;2023-12-07T05:48:00;117.40;;;5.30;;
8938;SDS011;4504;48.810;9.172;2023-12-07T05:50:27;117.97;;;5.95;;
8938;SDS011;4504;48.810;9.172;2023-12-07T05:52:54;119.93;;;6.25;;
8938;SDS011;4504;48.810;9.172;2023-12-07T05:55:22;118.65;;;5.68;;
8938;SDS011;4504;48.810;9.172;2023-12-07T05:57:49;119.18;;;5.70;;
8938;SDS011;4504;48.810;9.172;2023-12-07T06:00:17;119.13;;;5.57;;
8938;SDS011;4504;48.810;9.172;2023-12-07T06:02:44;120.25;;;6.95;;
8938;SDS011;4504;48.810;9.172;2023-12-07T06:05:11;116.45;;;5.18;;
8938;SDS011;4504;48.810;9.172;2023-12-07T06:07:38;119.75;;;6.00;;
8938;SDS011;4504;48.810;9.172;2023-12-07T06:10:08;121.35;;;6.50;;
8938;SDS011;4504;48.810;9.172;2023-12-07T06:12:37;119.85;;;6.53;;
8938;SDS011;4504;48.810;9.172;2023-12-07T06:15:05;118.38;;;6.00;;
8938;SDS011;4504;48.810;9.172;2023-12-07T06:17:33;117.72;;;5.50;;
8938;SDS011;4504;48.810;9.172;2023-12-07T06:20:00;118.57;;;5.60;;
8938;SDS011;4504;48.810;9.172;2023-12-07T06:22:28;120.85;;;6.20;;
8938;SDS011;4504;48.810;9.172;2023-12-07T06:24:55;116.28;;;5.25;;
8938;SDS011;4504;48.810;9.172;2023-12-07T06:27:23;120.28;;;6.40;;
8938;SDS011;4504;48.810;9.172;2023-12-07T06:29:51;117.70;;;5.78;;
8938;SDS011;4504;48.810;9.172;2023-12-07T06:32:18;117.57;;;5.80;;
8938;SDS011;4504;48.810;9.172;2023-12-07T06:34:45;118.97;;;5.75;;
8938;SDS011;4504;48.810;9.172;2023-12-07T06:37:12;117.63;;;5.80;;
8938;SDS011;4504;48.810;9.172;2023-12-07T06:39:39;118.18;;;5.43;;
8938;SDS011;4504;48.810;9.172;2023-12-07T06:42:06;117.50;;;6.05;;
8938;SDS011;4504;48.810;9.172;2023-12-07T06:44:34;116.55;;;5.88;;
8938;SDS011;4504;48.810;9.172;2023-12-07T06:47:02;120.35;;;5.60;;
8938;SDS011;4504;48.810;9.172;2023-12-07T06:49:30;118.57;;;5.60;;
8938;SDS011;4504;48.810;9.172;2023-12-07T06:51:56;119.38;;;5.80;;
8938;SDS011;4504;48.810;9.172;2023-12-07T06:54:23;119.38;;;6.38;;
8938;SDS011;4504;48.810;9.172;2023-12-07T06:56:50;117.78;;;5.80;;
8938;SDS011;4504;48.810;9.172;2023-12-07T06:59:17;117.68;;;5.90;;
8938;SDS011;4504;48.810;9.172;2023-12-07T07:01:45;122.88;;;5.93;;
8938;SDS011;4504;48.810;9.172;2023-12-07T07:04:14;119.47;;;6.07;;
8938;SDS011;4504;48.810;9.172;2023-12-07T07:06:41;118.80;;;6.05;;
8938;SDS011;4504;48.810;9.172;2023-12-07T07:09:09;118.65;;;6.03;;
8938;SDS011;4504;48.810;9.172;2023-12-07T07:11:36;117.50;;;5.90;;
8938;SDS011;4504;48.810;9.172;2023-12-07T07:14:03;120.63;;;6.43;;
8938;SDS011;4504;48.810;9.172;2023-12-07T07:16:30;118.28;;;5.90;;
8938;SDS011;4504;48.810;9.172;2023-12-07T07:18:58;120.13;;;5.90;;
8938;SDS011;4504;48.810;9.172;2023-12-07T07:21:26;118.53;;;6.50;;
8938;SDS011;4504;48.810;9.172;2023-12-07T07:23:53;118.88;;;6.40;;
8938;SDS011;4504;48.810;9.172;2023-12-07T07:26:21;117.85;;;5.82;;
8938;SDS011;4504;48.810;9.172;2023-12-07T07:28:50;124.40;;;7.53;;
8938;SDS011;4504;48.810;9.172;2023-12-07T07:31:17;117.85;;;5.93;;
8938;SDS011;4504;48.810;9.172;2023-12-07T07:33:45;118.78;;;5.60;;
8938;SDS011;4504;48.810;9.172;2023-12-07T07:36:12;119.55;;;6.07;;
8938;SDS011;4504;48.810;9.172;2023-12-07T07:38:41;118.28;;;6.10;;
8938;SDS011;4504;48.810;9.172;2023-12-07T07:41:09;121.97;;;8.18;;
8938;SDS011;4504;48.810;9.172;2023-12-07T07:43:36;118.93;;;5.95;;
8938;SDS011;4504;48.810;9.172;2023-12-07T07:46:03;121.20;;;6.85;;
8938;SDS011;4504;48.810;9.172;2023-12-07T07:48:30;118.13;;;5.90;;
8938;SDS011;4504;48.810;9.172;2023-12-07T07:51:02;119.85;;;6.15;;
8938;SDS011;4504;48.810;9.172;2023-12-07T07:53:30;120.68;;;6.78;;
8938;SDS011;4504;48.810;9.172;2023-12-07T07:55:58;119.43;;;6.60;;
8938;SDS011;4504;48.810;9.172;2023-12-07T07:58:25;119.55;;;6.63;;
8938;SDS011;4504;48.810;9.172;2023-12-07T08:00:52;119.70;;;7.05;;
8938;SDS011;4504;48.810;9.172;2023-12-07T08:03:19;118.30;;;5.72;;
8938;SDS011;4504;48.810;9.172;2023-12-07T08:05:46;118.63;;;5.60;;
8938;SDS011;4504;48.810;9.172;2023-12-07T08:08:13;118.47;;;6.47;;
8938;SDS011;4504;48.810;9.172;2023-12-07T08:10:40;118.55;;;6.38;;
8938;SDS011;4504;48.810;9.172;2023-12-07T08:13:09;119.15;;;7.00;;
8938;SDS011;4504;48.810;9.172;2023-12-07T08:15:35;118.95;;;6.15;;
8938;SDS011;4504;48.810;9.172;2023-12-07T08:18:03;119.60;;;6.63;;
8938;SDS011;4504;48.810;9.172;2023-12-07T08:20:30;119.00;;;6.53;;
8938;SDS011;4504;48.810;9.172;2023-12-07T08:22:58;119.53;;;6.88;;
8938;SDS011;4504;48.810;9.172;2023-12-07T08:25:25;119.57;;;6.90;;
8938;SDS011;4504;48.810;9.172;2023-12-07T08:27:52;118.93;;;6.88;;
8938;SDS011;4504;48.810;9.172;2023-12-07T08:30:20;118.05;;;5.50;;
8938;SDS011;4504;48.810;9.172;2023-12-07T08:32:47;119.05;;;6.75;;
8938;SDS011;4504;48.810;9.172;2023-12-07T08:35:14;119.82;;;7.45;;
8938;SDS011;4504;48.810;9.172;2023-12-07T08:37:41;120.68;;;6.68;;
8938;SDS011;4504;48.810;9.172;2023-12-07T08:40:09;119.47;;;7.10;;
8938;SDS011;4504;48.810;9.172;2023-12-07T08:42:40;118.68;;;6.90;;
8938;SDS011;4504;48.810;9.172;2023-12-07T08:45:07;119.30;;;6.80;;
8938;SDS011;4504;48.810;9.172;2023-12-07T08:47:36;119.10;;;6.30;;
8938;SDS011;4504;48.810;9.172;2023-12-07T08:50:03;120.32;;;7.55;;
8938;SDS011;4504;48.810;9.172;2023-12-07T08:52:32;121.15;;;7.30;;
8938;SDS011;4504;48.810;9.172;2023-12-07T08:55:00;117.50;;;6.65;;
8938;SDS011;4504;48.810;9.172;2023-12-07T08:57:27;119.15;;;6.88;;
8938;SDS011;4504;48.810;9.172;2023-12-07T08:59:54;118.18;;;5.90;;
8938;SDS011;4504;48.810;9.172;2023-12-07T09:02:21;119.05;;;6.65;;
8938;SDS011;4504;48.810;9.172;2023-12-07T09:04:50;117.45;;;6.30;;
8938;SDS011;4504;48.810;9.172;2023-12-07T09:07:17;120.05;;;6.55;;
8938;SDS011;4504;48.810;9.172;2023-12-07T09:09:44;118.78;;;5.95;;
8938;SDS011;4504;48.810;9.172;2023-12-07T09:12:12;119.47;;;7.30;;
8938;SDS011;4504;48.810;9.172;2023-12-07T09:14:41;120.43;;;6.70;;
8938;SDS011;4504;48.810;9.172;2023-12-07T09:17:08;120.18;;;7.70;;
8938;SDS011;4504;48.810;9.172;2023-12-07T09:19:35;122.15;;;6.40;;
8938;SDS011;4504;48.810;9.172;2023-12-07T09:22:03;120.22;;;6.80;;
8938;SDS011;4504;48.810;9.172;2023-12-07T09:24:30;119.78;;;6.03;;
8938;SDS011;4504;48.810;9.172;2023-12-07T09:26:57;118.63;;;6.10;;
8938;SDS011;4504;48.810;9.172;2023-12-07T09:29:24;116.43;;;5.70;;
8938;SDS011;4504;48.810;9.172;2023-12-07T09:31:52;122.68;;;8.25;;
8938;SDS011;4504;48.810;9.172;2023-12-07T09:34:19;122.57;;;7.57;;
8938;SDS011;4504;48.810;9.172;2023-12-07T09:36:46;119.22;;;6.47;;
8938;SDS011;4504;48.810;9.172;2023-12-07T09:39:14;120.82;;;7.43;;
8938;SDS011;4504;48.810;9.172;2023-12-07T09:41:41;122.68;;;6.78;;
8938;SDS011;4504;48.810;9.172;2023-12-07T09:44:12;119.63;;;6.20;;
8938;SDS011;4504;48.810;9.172;2023-12-07T09:46:43;119.10;;;6.35;;
8938;SDS011;4504;48.810;9.172;2023-12-07T09:49:10;119.88;;;6.35;;
8938;SDS011;4504;48.810;9.172;2023-12-07T09:51:37;120.82;;;6.40;;
8938;SDS011;4504;48.810;9.172;2023-12-07T09:54:07;120.32;;;7.70;;
8938;SDS011;4504;48.810;9.172;2023-12-07T09:56:36;123.45;;;7.53;;
8938;SDS011;4504;48.810;9.172;2023-12-07T09:59:03;129.20;;;6.60;;
8938;SDS011;4504;48.810;9.172;2023-12-07T10:01:30;119.18;;;5.80;;
8938;SDS011;4504;48.810;9.172;2023-12-07T10:04:16;117.88;;;6.00;;
8938;SDS011;4504;48.810;9.172;2023-12-07T10:06:44;119.55;;;6.00;;
8938;SDS011;4504;48.810;9.172;2023-12-07T10:09:13;121.75;;;8.45;;
8938;SDS011;4504;48.810;9.172;2023-12-07T10:11:41;122.88;;;6.60;;
8938;SDS011;4504;48.810;9.172;2023-12-07T10:14:09;122.07;;;6.78;;
8938;SDS011;4504;48.810;9.172;2023-12-07T10:16:36;118.57;;;6.80;;
8938;SDS011;4504;48.810;9.172;2023-12-07T10:19:13;119.60;;;6.55;;
8938;SDS011;4504;48.810;9.172;2023-12-07T10:21:46;119.85;;;6.55;;
8938;SDS011;4504;48.810;9.172;2023-12-07T10:24:15;117.47;;;5.75;;
8938;SDS011;4504;48.810;9.172;2023-12-07T10:26:44;117.75;;;5.50;;
8938;SDS011;4504;48.810;9.172;2023-12-07T10:29:12;120.10;;;6.43;;
8938;SDS011;4504;48.810;9.172;2023-12-07T10:31:39;118.80;;;7.03;;
8938;SDS011;4504;48.810;9.172;2023-12-07T10:34:06;119.38;;;6.00;;
8938;SDS011;4504;48.810;9.172;2023-12-07T10:36:34;121.95;;;6.47;;
8938;SDS011;4504;48.810;9.172;2023-12-07T10:39:01;122.22;;;7.30;;
8938;SDS011;4504;48.810;9.172;2023-12-07T10:41:31;117.70;;;6.45;;
8938;SDS011;4504;48.810;9.172;2023-12-07T10:44:02;123.03;;;6.68;;
8938;SDS011;4504;48.810;9.172;2023-12-07T10:46:32;118.15;;;6.00;;
8938;SDS011;4504;48.810;9.172;2023-12-07T10:49:01;119.03;;;6.05;;
8938;SDS011;4504;48.810;9.172;2023-12-07T10:51:33;126.47;;;6.78;;
8938;SDS011;4504;48.810;9.172;2023-12-07T10:54:06;117.97;;;6.22;;
8938;SDS011;4504;48.810;9.172;2023-12-07T10:56:38;118.05;;;5.18;;
8938;SDS011;4504;48.810;9.172;2023-12-07T10:59:10;120.63;;;6.40;;
8938;SDS011;4504;48.810;9.172;2023-12-07T11:01:38;120.38;;;6.00;;
8938;SDS011;4504;48.810;9.172;2023-12-07T11:04:08;119.20;;;5.43;;
8938;SDS011;4504;48.810;9.172;2023-12-07T11:06:38;118.57;;;5.40;;
8938;SDS011;4504;48.810;9.172;2023-12-07T11:09:08;118.80;;;5.80;;
8938;SDS011;4504;48.810;9.172;2023-12-07T11:11:39;120.13;;;5.47;;
8938;SDS011;4504;48.810;9.172;2023-12-07T11:14:12;121.60;;;5.65;;
8938;SDS011;4504;48.810;9.172;2023-12-07T11:16:41;118.05;;;5.43;;
8938;SDS011;4504;48.810;9.172;2023-12-07T11:19:23;121.47;;;5.82;;
8938;SDS011;4504;48.810;9.172;2023-12-07T11:22:10;117.95;;;5.57;;
8938;SDS011;4504;48.810;9.172;2023-12-07T11:24:40;119.80;;;5.88;;
8938;SDS011;4504;48.810;9.172;2023-12-07T11:27:18;119.32;;;5.63;;
8938;SDS011;4504;48.810;9.172;2023-12-07T11:29:47;118.18;;;4.90;;
8938;SDS011;4504;48.810;9.172;2023-12-07T11:32:14;116.93;;;5.00;;
8938;SDS011;4504;48.810;9.172;2023-12-07T11:34:42;119.00;;;5.43;;
8938;SDS011;4504;48.810;9.172;2023-12-07T11:37:10;117.97;;;5.20;;
8938;SDS011;4504;48.810;9.172;2023-12-07T11:39:41;122.30;;;5.60;;
8938;SDS011;4504;48.810;9.172;2023-12-07T11:42:10;117.95;;;5.65;;
8938;SDS011;4504;48.810;9.172;2023-12-07T11:44:39;118.82;;;5.32;;
8938;SDS011;4504;48.810;9.172;2023-12-07T11:47:08;125.93;;;5.20;;
8938;SDS011;4504;48.810;9.172;2023-12-07T11:49:36;117.38;;;5.43;;
8938;SDS011;4504;48.810;9.172;2023-12-07T11:52:13;117.78;;;4.80;;
8938;SDS011;4504;48.810;9.172;2023-12-07T11:54:42;117.63;;;5.35;;
8938;SDS011;4504;48.810;9.172;2023-12-07T11:57:10;117.35;;;4.70;;
8938;SDS011;4504;48.810;9.172;2023-12-07T11:59:37;117.85;;;5.75;;
8938;SDS011;4504;48.810;9.172;2023-12-07T12:02:04;118.43;;;4.93;;
8938;SDS011;4504;48.810;9.172;2023-12-07T12:04:33;119.50;;;5.97;;
8938;SDS011;4504;48.810;9.172;2023-12-07T12:07:00;118.10;;;5.20;;
8938;SDS011;4504;48.810;9.172;2023-12-07T12:09:27;119.05;;;5.68;;
8938;SDS011;4504;48.810;9.172;2023-12-07T12:11:56;118.15;;;5.30;;
8938;SDS011;4504;48.810;9.172;2023-12-07T12:14:25;116.10;;;4.68;;
8938;SDS011;4504;48.810;9.172;2023-12-07T12:16:53;118.43;;;5.47;;
8938;SDS011;4504;48.810;9.172;2023-12-07T12:19:21;117.32;;;4.60;;
8938;SDS011;4504;48.810;9.172;2023-12-07T12:21:50;117.15;;;4.93;;
8938;SDS011;4504;48.810;9.172;2023-12-07T12:24:17;118.55;;;4.70;;
8938;SDS011;4504;48.810;9.172;2023-12-07T12:26:45;117.70;;;4.90;;
8938;SDS011;4504;48.810;9.172;2023-12-07T12:29:13;118.18;;;5.15;;
8938;SDS011;4504;48.810;9.172;2023-12-07T12:31:41;117.32;;;4.72;;
8938;SDS011;4504;48.810;9.172;2023-12-07T12:34:08;118.03;;;5.03;;
8938;SDS011;4504;48.810;9.172;2023-12-07T12:36:38;116.93;;;5.18;;
8938;SDS011;4504;48.810;9.172;2023-12-07T12:39:07;118.07;;;4.85;;
8938;SDS011;4504;48.810;9.172;2023-12-07T12:41:34;117.18;;;4.90;;
8938;SDS011;4504;48.810;9.172;2023-12-07T12:44:01;127.85;;;5.53;;
8938;SDS011;4504;48.810;9.172;2023-12-07T12:46:28;116.32;;;4.80;;
8938;SDS011;4504;48.810;9.172;2023-12-07T12:48:55;116.38;;;4.72;;
8938;SDS011;4504;48.810;9.172;2023-12-07T12:51:26;116.82;;;4.50;;
8938;SDS011;4504;48.810;9.172;2023-12-07T12:53:58;121.25;;;4.75;;
8938;SDS011;4504;48.810;9.172;2023-12-07T12:56:27;117.38;;;4.88;;
8938;SDS011;4504;48.810;9.172;2023-12-07T12:58:54;117.53;;;5.13;;
8938;SDS011;4504;48.810;9.172;2023-12-07T13:01:22;117.55;;;4.50;;
8938;SDS011;4504;48.810;9.172;2023-12-07T13:03:50;117.13;;;4.90;;
8938;SDS011;4504;48.810;9.172;2023-12-07T13:06:17;119.32;;;5.60;;
8938;SDS011;4504;48.810;9.172;2023-12-07T13:08:44;117.40;;;5.60;;
8938;SDS011;4504;48.810;9.172;2023-12-07T13:11:14;119.53;;;5.35;;
8938;SDS011;4504;48.810;9.172;2023-12-07T13:13:43;118.32;;;5.30;;
8938;SDS011;4504;48.810;9.172;2023-12-07T13:16:12;116.93;;;4.85;;
8938;SDS011;4504;48.810;9.172;2023-12-07T13:18:40;117.85;;;5.32;;
8938;SDS011;4504;48.810;9.172;2023-12-07T13:21:07;117.68;;;4.72;;
8938;SDS011;4504;48.810;9.172;2023-12-07T13:23:35;116.40;;;4.80;;
8938;SDS011;4504;48.810;9.172;2023-12-07T13:26:02;117.57;;;5.07;;
8938;SDS011;4504;48.810;9.172;2023-12-07T13:28:29;118.28;;;5.60;;
8938;SDS011;4504;48.810;9.172;2023-12-07T13:30:58;117.50;;;4.90;;
8938;SDS011;4504;48.810;9.172;2023-12-07T13:33:25;117.00;;;4.45;;
8938;SDS011;4504;48.810;9.172;2023-12-07T13:35:52;119.82;;;5.30;;
8938;SDS011;4504;48.810;9.172;2023-12-07T13:38:20;117.65;;;5.40;;
8938;SDS011;4504;48.810;9.172;2023-12-07T13:40:47;119.13;;;5.50;;
8938;SDS011;4504;48.810;9.172;2023-12-07T13:43:14;118.63;;;5.00;;
8938;SDS011;4504;48.810;9.172;2023-12-07T13:45:41;117.38;;;4.97;;
8938;SDS011;4504;48.810;9.172;2023-12-07T13:48:10;117.47;;;5.00;;
8938;SDS011;4504;48.810;9.172;2023-12-07T13:50:37;117.78;;;4.70;;
8938;SDS011;4504;48.810;9.172;2023-12-07T13:53:05;119.32;;;5.38;;
8938;SDS011;4504;48.810;9.172;2023-12-07T13:55:35;118.07;;;5.22;;
8938;SDS011;4504;48.810;9.172;2023-12-07T13:58:05;117.78;;;4.95;;
8938;SDS011;4504;48.810;9.172;2023-12-07T14:00:33;116.10;;;5.30;;
8938;SDS011;4504;48.810;9.172;2023-12-07T14:03:00;116.95;;;4.65;;
8938;SDS011;4504;48.810;9.172;2023-12-07T14:05:30;121.63;;;5.55;;
8938;SDS011;4504;48.810;9.172;2023-12-07T14:07:57;117.95;;;5.15;;
8938;SDS011;4504;48.810;9.172;2023-12-07T14:10:24;116.45;;;4.95;;
8938;SDS011;4504;48.810;9.172;2023-12-07T14:12:51;116.10;;;4.70;;
8938;SDS011;4504;48.810;9.172;2023-12-07T14:15:18;116.82;;;4.65;;
8938;SDS011;4504;48.810;9.172;2023-12-07T14:17:45;117.88;;;5.05;;
8938;SDS011;4504;48.810;9.172;2023-12-07T14:20:12;118.88;;;5.30;;
8938;SDS011;4504;48.810;9.172;2023-12-07T14:22:41;117.90;;;4.60;;
8938;SDS011;4504;48.810;9.172;2023-12-07T14:25:08;116.45;;;4.88;;
8938;SDS011;4504;48.810;9.172;2023-12-07T14:27:36;116.43;;;4.60;;
8938;SDS011;4504;48.810;9.172;2023-12-07T14:30:04;116.47;;;4.20;;
8938;SDS011;4504;48.810;9.172;2023-12-07T14:32:32;116.78;;;4.63;;
8938;SDS011;4504;48.810;9.172;2023-12-07T14:34:58;117.28;;;4.60;;
8938;SDS011;4504;48.810;9.172;2023-12-07T14:37:25;117.22;;;4.75;;
8938;SDS011;4504;48.810;9.172;2023-12-07T14:39:54;116.47;;;4.20;;
8938;SDS011;4504;48.810;9.172;2023-12-07T14:42:21;117.22;;;4.38;;
8938;SDS011;4504;48.810;9.172;2023-12-07T14:44:48;116.97;;;4.43;;
8938;SDS011;4504;48.810;9.172;2023-12-07T14:47:15;126.15;;;4.60;;
8938;SDS011;4504;48.810;9.172;2023-12-07T14:49:42;117.00;;;4.60;;
8938;SDS011;4504;48.810;9.172;2023-12-07T14:52:09;116.57;;;4.80;;